createdAt,value
2023-01-30T00:02:00.998Z,100729.66
2023-01-30T00:04:31.466Z,100729.19
2023-01-30T00:07:03.873Z,100716.72
2023-01-30T00:09:33.962Z,100717.41
2023-01-30T00:12:05.907Z,100714.97
2023-01-30T00:14:35.715Z,100714.50
2023-01-30T00:17:06.164Z,100714.84
2023-01-30T00:19:36.631Z,100714.38
2023-01-30T00:22:08.413Z,100710.28
2023-01-30T00:24:38.594Z,100715.06
2023-01-30T00:27:09.005Z,100716.59
2023-01-30T00:29:39.554Z,100718.94
2023-01-30T00:32:10.519Z,100710.88
2023-01-30T00:34:41.122Z,100712.84
2023-01-30T00:37:13.709Z,100716.50
2023-01-30T00:39:43.521Z,100711.22
2023-01-30T00:42:30.312Z,100717.66
2023-01-30T00:45:17.681Z,100713.22
2023-01-30T00:47:49.173Z,100716.03
2023-01-30T00:50:19.904Z,100718.81
2023-01-30T00:52:52.101Z,100728.88
2023-01-30T00:55:21.798Z,100723.25
2023-01-30T00:57:51.699Z,100718.81
2023-01-30T01:00:23.652Z,100717.66
2023-01-30T01:02:54.220Z,100714.38
2023-01-30T01:05:24.937Z,100708.78
2023-01-30T01:07:58.106Z,100726.41
2023-01-30T01:10:28.753Z,100724.75
2023-01-30T01:12:58.730Z,100728.41
2023-01-30T01:15:30.099Z,100721.63
2023-01-30T01:18:01.877Z,100724.44
2023-01-30T01:20:32.225Z,100715.19
2023-01-30T01:23:04.707Z,100708.78
2023-01-30T01:25:35.410Z,100711.59
2023-01-30T01:28:06.836Z,100713.56
2023-01-30T01:30:37.469Z,100715.56
2023-01-30T01:33:07.947Z,100704.69
2023-01-30T01:35:43.747Z,100706.34
2023-01-30T01:38:15.867Z,100700.25
2023-01-30T01:41:06.512Z,100696.63
2023-01-30T01:43:40.070Z,100693.72
2023-01-30T01:46:23.415Z,100699.69
2023-01-30T01:49:00.455Z,100695.25
2023-01-30T01:51:36.613Z,100700.84
2023-01-30T01:54:14.220Z,100687.19
2023-01-30T01:56:50.636Z,100687.19
2023-01-30T01:59:29.978Z,100680.28
2023-01-30T02:02:06.308Z,100686.25
2023-01-30T02:04:56.840Z,100681.81
2023-01-30T02:07:28.101Z,100686.16
2023-01-30T02:10:00.948Z,100687.31
2023-01-30T02:12:31.630Z,100682.50
2023-01-30T02:15:03.734Z,100682.50
2023-01-30T02:17:34.018Z,100694.06
2023-01-30T02:20:14.037Z,100692.44
2023-01-30T02:23:32.571Z,100696.41
2023-01-30T02:26:55.811Z,100696.75
2023-01-30T02:29:58.626Z,100694.75
2023-01-30T02:32:39.766Z,100695.59
2023-01-30T02:35:25.202Z,100691.63
2023-01-30T02:38:15.523Z,100690.47
2023-01-30T02:41:02.058Z,100696.06
2023-01-30T02:43:43.062Z,100691.28
2023-01-30T02:46:22.152Z,100688.94
2023-01-30T02:49:00.628Z,100700.97
2023-01-30T02:51:36.297Z,100705.75
2023-01-30T02:54:10.065Z,100697.34
2023-01-30T02:56:52.937Z,100700.50
2023-01-30T02:59:29.889Z,100695.25
2023-01-30T03:02:44.155Z,100687.19
2023-01-30T03:05:45.003Z,100701.91
2023-01-30T03:08:34.402Z,100699.94
2023-01-30T03:11:07.651Z,100708.66
2023-01-30T03:13:58.733Z,100715.91
2023-01-30T03:16:35.218Z,100713.47
2023-01-30T03:19:08.957Z,100714.63
2023-01-30T03:21:45.108Z,100715.78
2023-01-30T03:24:16.822Z,100705.75
2023-01-30T03:26:56.332Z,100714.97
2023-01-30T03:29:27.505Z,100721.75
2023-01-30T03:31:58.323Z,100712.50
2023-01-30T03:34:28.827Z,100712.50
2023-01-30T03:37:01.521Z,100713.34
2023-01-30T03:39:31.585Z,100733.75
2023-01-30T03:42:01.895Z,100738.53
2023-01-30T03:44:32.419Z,100734.91
2023-01-30T03:47:02.454Z,100718.78
2023-01-30T03:49:32.659Z,100713.91
2023-01-30T03:52:05.124Z,100721.84
2023-01-30T03:54:38.172Z,100715.75
2023-01-30T03:57:08.763Z,100718.94
2023-01-30T03:59:39.324Z,100738.84
2023-01-30T04:02:10.743Z,100739.53
2023-01-30T04:04:40.635Z,100733.09
2023-01-30T04:07:13.459Z,100732.66
2023-01-30T04:09:43.885Z,100731.03
2023-01-30T04:12:14.309Z,100736.25
2023-01-30T04:14:44.091Z,100727.06
2023-01-30T04:17:14.347Z,100734.97
2023-01-30T04:19:44.738Z,100729.38
2023-01-30T04:22:17.433Z,100732.19
2023-01-30T04:24:48.159Z,100733.34
2023-01-30T04:27:19.200Z,100734.97
2023-01-30T04:29:50.015Z,100734.16
2023-01-30T04:32:20.711Z,100747.81
2023-01-30T04:34:51.280Z,100736.25
2023-01-30T04:37:23.471Z,100735.91
2023-01-30T04:39:53.796Z,100729.50
2023-01-30T04:42:24.137Z,100727.50
2023-01-30T04:44:54.576Z,100726.69
2023-01-30T04:47:25.027Z,100738.25
2023-01-30T04:49:55.566Z,100733.47
2023-01-30T04:52:27.853Z,100732.19
2023-01-30T04:54:58.620Z,100738.94
2023-01-30T04:57:29.367Z,100742.09
2023-01-30T04:59:59.454Z,100738.34
2023-01-30T05:02:30.153Z,100741.81
2023-01-30T05:05:01.045Z,100745.78
2023-01-30T05:07:33.613Z,100757.81
2023-01-30T05:10:04.927Z,100759.78
2023-01-30T05:12:35.738Z,100760.94
2023-01-30T05:15:07.317Z,100768.19
2023-01-30T05:17:38.708Z,100754.66
2023-01-30T05:20:11.933Z,100747.69
2023-01-30T05:22:44.483Z,100761.25
2023-01-30T05:25:15.703Z,100757.69
2023-01-30T05:27:46.360Z,100769.22
2023-01-30T05:30:17.422Z,100752.69
2023-01-30T05:32:48.137Z,100765.88
2023-01-30T05:35:19.501Z,100778.72
2023-01-30T05:37:56.207Z,100778.47
2023-01-30T05:40:28.820Z,100775.81
2023-01-30T05:42:59.551Z,100766.31
2023-01-30T05:45:30.331Z,100763.25
2023-01-30T05:48:02.172Z,100773.38
2023-01-30T05:50:33.579Z,100778.69
2023-01-30T05:53:05.369Z,100774.31
2023-01-30T05:55:36.274Z,100777.16
2023-01-30T05:58:06.129Z,100779.16
2023-01-30T06:00:36.076Z,100788.50
2023-01-30T06:03:06.387Z,100789.69
2023-01-30T06:05:39.856Z,100786.88
2023-01-30T06:08:11.837Z,100791.41
2023-01-30T06:10:42.676Z,100789.50
2023-01-30T06:13:13.197Z,100780.38
2023-01-30T06:15:44.086Z,100784.13
2023-01-30T06:18:14.051Z,100789.94
2023-01-30T06:20:49.108Z,100798.19
2023-01-30T06:23:23.824Z,100800.66
2023-01-30T06:25:56.173Z,100784.06
2023-01-30T06:28:28.091Z,100795.22
2023-01-30T06:30:58.731Z,100791.38
2023-01-30T06:33:29.445Z,100801.28
2023-01-30T06:36:00.600Z,100798.38
2023-01-30T06:38:33.059Z,100785.34
2023-01-30T06:41:04.471Z,100784.34
2023-01-30T06:43:35.108Z,100788.63
2023-01-30T06:46:05.745Z,100800.16
2023-01-30T06:48:36.212Z,100796.28
2023-01-30T06:51:06.950Z,100797.25
2023-01-30T06:53:39.797Z,100800.53
2023-01-30T06:56:10.649Z,100795.38
2023-01-30T06:58:40.613Z,100797.47
2023-01-30T07:01:10.671Z,100786.16
2023-01-30T07:03:41.448Z,100793.84
2023-01-30T07:06:11.985Z,100797.50
2023-01-30T07:08:44.970Z,100798.75
2023-01-30T07:11:15.449Z,100790.72
2023-01-30T07:13:45.772Z,100788.00
2023-01-30T07:16:16.365Z,100791.75
2023-01-30T07:18:47.446Z,100784.97
2023-01-30T07:21:18.055Z,100780.16
2023-01-30T07:23:51.597Z,100779.78
2023-01-30T07:26:22.898Z,100788.38
2023-01-30T07:28:53.415Z,100775.50
2023-01-30T07:31:24.194Z,100763.47
2023-01-30T07:33:54.824Z,100756.31
2023-01-30T07:36:25.448Z,100764.03
2023-01-30T07:38:57.983Z,100756.41
2023-01-30T07:41:28.142Z,100756.47
2023-01-30T07:43:58.677Z,100758.16
2023-01-30T07:46:35.593Z,100762.25
2023-01-30T07:49:07.322Z,100765.50
2023-01-30T07:51:38.060Z,100754.63
2023-01-30T07:54:11.259Z,100760.75
2023-01-30T07:56:42.009Z,100761.59
2023-01-30T07:59:14.211Z,100766.06
2023-01-30T08:01:44.887Z,100771.34
2023-01-30T08:04:15.230Z,100770.13
2023-01-30T08:06:45.262Z,100770.03
2023-01-30T08:09:17.826Z,100773.59
2023-01-30T08:11:48.855Z,100767.03
2023-01-30T08:14:19.575Z,100773.03
2023-01-30T08:16:52.792Z,100768.47
2023-01-30T08:19:24.461Z,100765.06
2023-01-30T08:21:55.061Z,100754.81
2023-01-30T08:24:28.099Z,100768.84
2023-01-30T08:26:58.594Z,100755.78
2023-01-30T08:29:29.156Z,100759.72
2023-01-30T08:32:02.179Z,100753.91
2023-01-30T08:34:32.718Z,100755.41
2023-01-30T08:37:02.774Z,100754.50
2023-01-30T08:39:37.206Z,100758.84
2023-01-30T08:42:08.206Z,100746.63
2023-01-30T08:44:38.184Z,100756.66
2023-01-30T08:47:08.096Z,100736.00
2023-01-30T08:49:38.452Z,100736.81
2023-01-30T08:52:08.934Z,100729.53
2023-01-30T08:54:40.841Z,100722.97
2023-01-30T08:57:11.333Z,100727.75
2023-01-30T08:59:41.688Z,100721.25
2023-01-30T09:02:14.555Z,100730.09
2023-01-30T09:04:44.868Z,100719.19
2023-01-30T09:07:15.655Z,100705.06
2023-01-30T09:10:00.963Z,100697.44
2023-01-30T09:12:31.116Z,100709.91
2023-01-30T09:15:01.793Z,100705.06
2023-01-30T09:17:32.044Z,100713.09
2023-01-30T09:20:02.834Z,100708.25
2023-01-30T09:22:33.451Z,100701.69
2023-01-30T09:25:06.304Z,100697.59
2023-01-30T09:27:37.673Z,100704.75
2023-01-30T09:30:09.854Z,100703.06
2023-01-30T09:32:41.361Z,100698.56
2023-01-30T09:35:11.985Z,100688.47
2023-01-30T09:37:50.666Z,100688.47
2023-01-30T09:40:27.814Z,100687.28
2023-01-30T09:43:27.504Z,100685.25
2023-01-30T09:46:23.282Z,100677.19
2023-01-30T09:49:05.906Z,100680.00
2023-01-30T09:51:52.574Z,100680.00
2023-01-30T09:54:31.799Z,100675.56
2023-01-30T09:57:21.992Z,100672.28
2023-01-30T10:00:13.702Z,100670.69
2023-01-30T10:02:56.190Z,100670.63
2023-01-30T10:05:38.306Z,100664.97
2023-01-30T10:08:35.709Z,100658.94
2023-01-30T10:11:17.706Z,100679.44
2023-01-30T10:14:31.242Z,100666.88
2023-01-30T10:17:20.321Z,100664.00
2023-01-30T10:20:15.257Z,100659.47
2023-01-30T10:23:02.976Z,100638.84
2023-01-30T10:25:44.051Z,100648.44
2023-01-30T10:28:25.239Z,100641.91
2023-01-30T10:31:06.310Z,100636.66
2023-01-30T10:33:45.463Z,100612.47
2023-01-30T10:36:32.045Z,100613.66
2023-01-30T10:39:08.498Z,100618.06
2023-01-30T10:41:48.665Z,100612.78
2023-01-30T10:44:20.180Z,100608.75
2023-01-30T10:47:34.731Z,100607.06
2023-01-30T10:50:19.780Z,100598.56
2023-01-30T10:53:02.458Z,100602.56
2023-01-30T10:55:40.334Z,100595.69
2023-01-30T10:58:26.989Z,100601.28
2023-01-30T11:01:19.216Z,100591.94
2023-01-30T11:03:59.003Z,100587.44
2023-01-30T11:06:30.283Z,100580.88
2023-01-30T11:09:01.245Z,100584.09
2023-01-30T11:11:39.047Z,100582.84
2023-01-30T11:14:11.534Z,100579.59
2023-01-30T11:16:49.266Z,100579.16
2023-01-30T11:19:26.249Z,100570.25
2023-01-30T11:22:02.772Z,100569.41
2023-01-30T11:24:40.932Z,100575.78
2023-01-30T11:27:21.802Z,100576.19
2023-01-30T11:29:52.995Z,100582.16
2023-01-30T11:32:30.423Z,100569.31
2023-01-30T11:35:29.954Z,100570.41
2023-01-30T11:38:23.806Z,100573.16
2023-01-30T11:41:08.174Z,100571.94
2023-01-30T11:43:41.924Z,100575.94
2023-01-30T11:46:19.112Z,100573.50
2023-01-30T11:49:14.165Z,100566.25
2023-01-30T11:51:57.461Z,100563.81
2023-01-30T11:54:38.453Z,100556.53
2023-01-30T11:57:15.666Z,100561.75
2023-01-30T11:59:51.180Z,100563.66
2023-01-30T12:02:27.704Z,100555.16
2023-01-30T12:05:02.771Z,100555.91
2023-01-30T12:07:39.134Z,100554.72
2023-01-30T12:10:32.880Z,100555.91
2023-01-30T12:13:17.107Z,100550.66
2023-01-30T12:15:50.869Z,100551.84
2023-01-30T12:18:31.107Z,100550.59
2023-01-30T12:21:04.298Z,100550.16
2023-01-30T12:23:48.059Z,100556.97
2023-01-30T12:26:24.104Z,100549.72
2023-01-30T12:29:03.862Z,100540.47
2023-01-30T12:31:42.783Z,100544.47
2023-01-30T12:34:13.819Z,100538.84
2023-01-30T12:36:58.104Z,100539.22
2023-01-30T12:39:52.172Z,100553.22
2023-01-30T12:43:06.881Z,100553.94
2023-01-30T12:45:45.403Z,100559.97
2023-01-30T12:48:48.800Z,100559.13
2023-01-30T12:51:54.423Z,100559.53
2023-01-30T12:54:49.142Z,100557.06
2023-01-30T12:57:34.371Z,100576.34
2023-01-30T13:00:36.211Z,100574.28
2023-01-30T13:03:33.201Z,100568.19
2023-01-30T13:06:26.896Z,100572.19
2023-01-30T13:09:24.442Z,100562.13
2023-01-30T13:12:10.639Z,100569.78
2023-01-30T13:14:54.281Z,100560.50
2023-01-30T13:17:49.601Z,100570.50
2023-01-30T13:20:46.834Z,100573.31
2023-01-30T13:23:25.977Z,100569.72
2023-01-30T13:26:06.662Z,100569.72
2023-01-30T13:28:44.889Z,100570.06
2023-01-30T13:31:21.884Z,100568.00
2023-01-30T13:34:01.411Z,100568.38
2023-01-30T13:36:44.402Z,100577.19
2023-01-30T13:39:21.852Z,100573.94
2023-01-30T13:42:03.031Z,100584.38
2023-01-30T13:44:40.826Z,100586.38
2023-01-30T13:47:30.569Z,100585.56
2023-01-30T13:50:34.573Z,100575.88
2023-01-30T13:53:14.943Z,100581.50
2023-01-30T13:55:57.904Z,100569.41
2023-01-30T13:58:47.311Z,100566.16
2023-01-30T14:01:21.844Z,100576.16
2023-01-30T14:03:52.973Z,100575.72
2023-01-30T14:06:43.595Z,100567.66
2023-01-30T14:09:33.788Z,100562.78
2023-01-30T14:12:07.205Z,100565.97
2023-01-30T14:14:41.176Z,100560.28
2023-01-30T14:17:16.869Z,100552.94
2023-01-30T14:20:02.698Z,100555.25
2023-01-30T14:22:51.160Z,100557.13
2023-01-30T14:25:47.793Z,100563.88
2023-01-30T14:28:52.844Z,100573.88
2023-01-30T14:31:51.639Z,100575.78
2023-01-30T14:35:29.092Z,100580.28
2023-01-30T14:38:15.154Z,100584.44
2023-01-30T14:41:20.070Z,100584.88
2023-01-30T14:43:54.152Z,100602.31
2023-01-30T14:46:58.514Z,100601.59
2023-01-30T14:49:37.486Z,100592.44
2023-01-30T14:52:37.125Z,100593.38
2023-01-30T14:55:18.152Z,100589.13
2023-01-30T14:58:02.427Z,100587.31
2023-01-30T15:00:39.152Z,100586.75
2023-01-30T15:03:22.047Z,100585.41
2023-01-30T15:05:53.058Z,100569.19
2023-01-30T15:08:29.331Z,100567.44
2023-01-30T15:11:15.671Z,100566.53
2023-01-30T15:14:08.073Z,100570.78
2023-01-30T15:17:06.405Z,100576.09
2023-01-30T15:20:22.567Z,100571.47
2023-01-30T15:23:16.897Z,100572.81
2023-01-30T15:26:19.178Z,100584.75
2023-01-30T15:29:21.944Z,100581.47
2023-01-30T15:31:58.248Z,100584.66
2023-01-30T15:34:32.931Z,100585.91
2023-01-30T15:37:06.502Z,100590.34
2023-01-30T15:39:36.985Z,100582.41
2023-01-30T15:42:18.045Z,100578.44
2023-01-30T15:45:00.876Z,100582.84
2023-01-30T15:47:59.856Z,100578.06
2023-01-30T15:50:30.357Z,100589.66
2023-01-30T15:53:01.097Z,100584.38
2023-01-30T15:55:36.736Z,100589.53
2023-01-30T15:58:15.674Z,100595.88
2023-01-30T16:00:52.444Z,100587.78
2023-01-30T16:03:26.953Z,100585.72
2023-01-30T16:06:00.332Z,100588.06
2023-01-30T16:08:33.748Z,100590.88
2023-01-30T16:11:04.496Z,100591.66
2023-01-30T16:13:39.983Z,100593.31
2023-01-30T16:16:18.082Z,100593.31
2023-01-30T16:18:56.074Z,100598.91
2023-01-30T16:21:34.714Z,100590.41
2023-01-30T16:24:08.987Z,100589.13
2023-01-30T16:26:46.132Z,100583.44
2023-01-30T16:29:24.131Z,100580.53
2023-01-30T16:31:56.403Z,100576.78
2023-01-30T16:34:36.739Z,100577.84
2023-01-30T16:37:25.677Z,100580.88
2023-01-30T16:40:15.483Z,100591.97
2023-01-30T16:42:58.877Z,100587.09
2023-01-30T16:46:37.926Z,100582.56
2023-01-30T16:49:09.009Z,100579.63
2023-01-30T16:51:39.467Z,100590.03
2023-01-30T16:54:24.507Z,100581.63
2023-01-30T16:56:59.917Z,100582.00
2023-01-30T16:59:34.962Z,100588.78
2023-01-30T17:02:09.517Z,100583.97
2023-01-30T17:04:41.778Z,100582.81
2023-01-30T17:07:37.845Z,100588.88
2023-01-30T17:10:30.046Z,100584.91
2023-01-30T17:13:01.918Z,100586.53
2023-01-30T17:15:36.300Z,100593.78
2023-01-30T17:18:11.279Z,100588.88
2023-01-30T17:20:51.584Z,100590.41
2023-01-30T17:23:24.618Z,100594.72
2023-01-30T17:25:55.813Z,100597.50
2023-01-30T17:28:26.361Z,100597.50
2023-01-30T17:30:57.096Z,100598.81
2023-01-30T17:33:29.187Z,100598.81
2023-01-30T17:36:00.655Z,100602.41
2023-01-30T17:38:30.640Z,100597.66
2023-01-30T17:41:02.646Z,100605.22
2023-01-30T17:43:33.169Z,100601.25
2023-01-30T17:46:03.768Z,100598.91
2023-01-30T17:48:35.634Z,100605.31
2023-01-30T17:51:06.059Z,100610.59
2023-01-30T17:53:36.675Z,100609.06
2023-01-30T17:56:22.196Z,100604.25
2023-01-30T17:58:52.721Z,100613.84
2023-01-30T18:01:23.231Z,100613.84
2023-01-30T18:03:55.067Z,100615.47
2023-01-30T18:06:27.527Z,100615.47
2023-01-30T18:08:58.057Z,100623.41
2023-01-30T18:11:28.638Z,100623.06
2023-01-30T18:13:59.377Z,100625.88
2023-01-30T18:16:33.396Z,100614.66
2023-01-30T18:19:07.364Z,100617.81
2023-01-30T18:21:40.456Z,100620.97
2023-01-30T18:24:11.439Z,100613.72
2023-01-30T18:26:42.016Z,100616.53
2023-01-30T18:29:20.286Z,100618.53
2023-01-30T18:31:51.155Z,100614.09
2023-01-30T18:34:23.186Z,100606.50
2023-01-30T18:36:53.754Z,100606.06
2023-01-30T18:39:25.301Z,100614.47
2023-01-30T18:41:55.711Z,100614.47
2023-01-30T18:44:26.368Z,100604.84
2023-01-30T18:46:57.637Z,100617.38
2023-01-30T18:49:29.760Z,100603.78
2023-01-30T18:52:00.419Z,100611.50
2023-01-30T18:54:31.301Z,100603.09
2023-01-30T18:57:01.943Z,100605.09
2023-01-30T18:59:31.844Z,100603.56
2023-01-30T19:02:02.593Z,100605.19
2023-01-30T19:04:36.609Z,100598.41
2023-01-30T19:07:07.095Z,100590.81
2023-01-30T19:09:37.148Z,100604.03
2023-01-30T19:12:24.787Z,100592.81
2023-01-30T19:14:55.644Z,100597.59
2023-01-30T19:17:26.402Z,100601.22
2023-01-30T19:20:01.751Z,100592.81
2023-01-30T19:22:32.371Z,100598.75
2023-01-30T19:25:03.049Z,100600.75
2023-01-30T19:27:33.610Z,100603.94
2023-01-30T19:30:04.384Z,100607.53
2023-01-30T19:32:35.321Z,100608.69
2023-01-30T19:35:09.702Z,100600.28
2023-01-30T19:37:41.008Z,100603.94
2023-01-30T19:40:13.050Z,100611.16
2023-01-30T19:42:44.666Z,100603.56
2023-01-30T19:45:15.390Z,100597.94
2023-01-30T19:47:46.027Z,100602.28
2023-01-30T19:50:19.808Z,100595.84
2023-01-30T19:52:50.638Z,100589.78
2023-01-30T19:55:21.084Z,100596.59
2023-01-30T19:57:51.614Z,100596.59
2023-01-30T20:00:24.019Z,100590.16
2023-01-30T20:02:54.735Z,100582.91
2023-01-30T20:05:28.525Z,100590.97
2023-01-30T20:07:59.276Z,100586.19
2023-01-30T20:10:30.069Z,100585.38
2023-01-30T20:13:00.588Z,100590.50
2023-01-30T20:15:31.275Z,100592.47
2023-01-30T20:18:02.012Z,100582.44
2023-01-30T20:20:35.126Z,100592.47
2023-01-30T20:23:05.082Z,100581.28
2023-01-30T20:25:38.701Z,100582.09
2023-01-30T20:28:09.947Z,100574.50
2023-01-30T20:30:43.385Z,100569.38
2023-01-30T20:33:13.774Z,100573.78
2023-01-30T20:35:45.843Z,100567.81
2023-01-30T20:38:16.476Z,100567.03
2023-01-30T20:40:47.883Z,100564.22
2023-01-30T20:43:18.643Z,100558.94
2023-01-30T20:45:49.526Z,100553.34
2023-01-30T20:48:21.343Z,100550.22
2023-01-30T20:50:54.440Z,100549.03
2023-01-30T20:53:25.782Z,100547.03
2023-01-30T20:56:00.186Z,100545.50
2023-01-30T20:58:31.938Z,100551.13
2023-01-30T21:01:11.856Z,100543.53
2023-01-30T21:03:44.436Z,100553.56
2023-01-30T21:06:42.626Z,100533.97
2023-01-30T21:09:13.092Z,100549.59
2023-01-30T21:11:44.808Z,100549.25
2023-01-30T21:14:16.316Z,100534.44
2023-01-30T21:16:47.420Z,100537.66
2023-01-30T21:19:19.625Z,100536.50
2023-01-30T21:21:54.398Z,100526.13
2023-01-30T21:24:28.055Z,100530.09
2023-01-30T21:27:00.365Z,100522.00
2023-01-30T21:29:33.509Z,100524.81
2023-01-30T21:32:04.047Z,100524.38
2023-01-30T21:34:35.670Z,100523.91
2023-01-30T21:37:24.502Z,100530.22
2023-01-30T21:40:07.906Z,100520.09
2023-01-30T21:42:54.882Z,100525.22
2023-01-30T21:45:24.639Z,100522.78
2023-01-30T21:47:56.765Z,100527.22
2023-01-30T21:50:32.845Z,100514.38
2023-01-30T21:53:04.623Z,100511.59
2023-01-30T21:55:34.767Z,100511.22
2023-01-30T21:58:04.915Z,100506.44
2023-01-30T22:00:35.156Z,100503.28
2023-01-30T22:03:07.089Z,100502.47
2023-01-30T22:05:38.884Z,100512.53
2023-01-30T22:08:11.566Z,100506.53
2023-01-30T22:10:41.851Z,100504.53
2023-01-30T22:13:12.819Z,100508.97
2023-01-30T22:15:44.833Z,100498.59
2023-01-30T22:18:15.899Z,100501.41
2023-01-30T22:20:45.890Z,100490.19
2023-01-30T22:23:18.133Z,100488.56
2023-01-30T22:25:57.923Z,100486.09
2023-01-30T22:28:30.263Z,100490.44
2023-01-30T22:31:06.063Z,100494.41
2023-01-30T22:33:38.220Z,100490.34
2023-01-30T22:36:10.611Z,100497.13
2023-01-30T22:38:46.276Z,100494.69
2023-01-30T22:41:21.147Z,100492.22
2023-01-30T22:43:55.726Z,100505.41
2023-01-30T22:46:29.121Z,100495.84
2023-01-30T22:49:01.718Z,100488.59
2023-01-30T22:51:34.604Z,100486.59
2023-01-30T22:54:09.458Z,100485.81
2023-01-30T22:56:42.535Z,100471.34
2023-01-30T22:59:13.574Z,100472.88
2023-01-30T23:01:47.814Z,100468.44
2023-01-30T23:04:20.917Z,100462.84
2023-01-30T23:06:53.897Z,100464.47
2023-01-30T23:09:27.293Z,100462.13
2023-01-30T23:12:16.975Z,100460.97
2023-01-30T23:14:47.753Z,100448.91
2023-01-30T23:17:34.722Z,100455.00
2023-01-30T23:20:05.476Z,100462.59
2023-01-30T23:22:36.764Z,100451.38
2023-01-30T23:25:11.522Z,100461.41
2023-01-30T23:27:41.725Z,100453.72
2023-01-30T23:30:13.547Z,100440.06
2023-01-30T23:32:44.087Z,100443.22
2023-01-30T23:35:14.204Z,100440.78
2023-01-30T23:38:03.366Z,100439.97
2023-01-30T23:40:36.516Z,100444.28
2023-01-30T23:43:07.024Z,100444.28
2023-01-30T23:45:38.939Z,100438.69
2023-01-30T23:48:10.772Z,100437.53
2023-01-30T23:50:42.917Z,100434.72
2023-01-30T23:53:14.107Z,100429.03
2023-01-30T23:55:54.118Z,100422.97
2023-01-30T23:58:24.949Z,100418.53
